createdAt,value
2022-08-03T00:01:30.055Z,23.89
2022-08-03T00:04:33.950Z,23.83
2022-08-03T00:07:35.858Z,23.76
2022-08-03T00:10:38.048Z,23.66
2022-08-03T00:13:39.728Z,23.60
2022-08-03T00:16:41.135Z,23.60
2022-08-03T00:19:42.545Z,23.62
2022-08-03T00:22:43.952Z,23.62
2022-08-03T00:25:45.452Z,23.63
2022-08-03T00:28:46.906Z,23.63
2022-08-03T00:31:52.709Z,23.59
2022-08-03T00:35:01.017Z,23.48
2022-08-03T00:38:09.852Z,23.44
2022-08-03T00:41:11.381Z,23.43
2022-08-03T00:44:17.124Z,23.31
2022-08-03T00:47:18.537Z,22.88
2022-08-03T00:50:22.885Z,22.56
2022-08-03T00:53:24.869Z,22.43
2022-08-03T00:56:26.704Z,22.36
2022-08-03T00:59:28.183Z,22.31
2022-08-03T01:02:29.624Z,22.17
2022-08-03T01:05:37.668Z,22.06
2022-08-03T01:09:02.562Z,22.05
2022-08-03T01:12:14.426Z,22.02
2022-08-03T01:15:28.885Z,21.98
2022-08-03T01:18:45.441Z,21.94
2022-08-03T01:22:00.566Z,21.94
2022-08-03T01:25:09.961Z,21.97
2022-08-03T01:28:59.214Z,22.07
2022-08-03T01:32:53.392Z,22.21
2022-08-03T01:35:42.258Z,22.32
2022-08-03T01:38:49.420Z,22.36
2022-08-03T01:41:59.154Z,22.41
2022-08-03T01:45:02.089Z,22.45
2022-08-03T01:48:05.076Z,22.48
2022-08-03T01:51:08.831Z,22.50
2022-08-03T01:54:13.349Z,22.47
2022-08-03T01:57:16.316Z,22.42
2022-08-03T02:00:19.161Z,22.46
2022-08-03T02:03:23.165Z,22.41
2022-08-03T02:07:02.152Z,22.34
2022-08-03T02:09:50.802Z,22.29
2022-08-03T02:12:53.474Z,22.30
2022-08-03T02:15:56.968Z,22.29
2022-08-03T02:19:00.149Z,22.22
2022-08-03T02:22:02.601Z,22.19
2022-08-03T02:25:04.314Z,22.20
2022-08-03T02:28:13.826Z,22.14
2022-08-03T02:31:23.331Z,21.99
2022-08-03T02:34:29.538Z,21.82
2022-08-03T02:37:34.208Z,21.70
2022-08-03T02:40:36.641Z,21.64
2022-08-03T02:44:05.659Z,21.72
2022-08-03T02:47:09.642Z,21.83
2022-08-03T02:50:13.403Z,21.83
2022-08-03T02:53:17.388Z,21.90
2022-08-03T02:56:19.593Z,21.97
2022-08-03T02:59:21.385Z,21.97
2022-08-03T03:02:24.821Z,21.91
2022-08-03T03:05:56.152Z,21.68
2022-08-03T03:08:48.961Z,21.58
2022-08-03T03:11:51.876Z,21.49
2022-08-03T03:14:53.367Z,21.62
2022-08-03T03:17:56.151Z,21.64
2022-08-03T03:21:00.561Z,21.67
2022-08-03T03:24:02.484Z,21.68
2022-08-03T03:27:04.944Z,21.69
2022-08-03T03:30:07.116Z,21.73
2022-08-03T03:33:08.710Z,21.72
2022-08-03T03:36:10.327Z,21.70
2022-08-03T03:39:15.444Z,21.64
2022-08-03T03:42:17.682Z,21.62
2022-08-03T03:45:20.606Z,21.60
2022-08-03T03:48:22.140Z,21.51
2022-08-03T03:51:23.702Z,21.51
2022-08-03T03:54:25.484Z,21.53
2022-08-03T03:57:30.704Z,21.53
2022-08-03T04:00:32.523Z,21.45
2022-08-03T04:03:35.640Z,21.44
2022-08-03T04:06:55.378Z,21.43
2022-08-03T04:10:16.331Z,21.43
2022-08-03T04:13:19.036Z,21.39
2022-08-03T04:16:23.831Z,21.40
2022-08-03T04:19:34.093Z,21.41
2022-08-03T04:22:36.644Z,21.35
2022-08-03T04:25:40.301Z,21.34
2022-08-03T04:28:45.946Z,21.31
2022-08-03T04:31:48.968Z,21.26
2022-08-03T04:34:51.297Z,21.29
2022-08-03T04:37:55.037Z,21.27
2022-08-03T04:40:57.201Z,21.29
2022-08-03T04:44:00.248Z,21.37
2022-08-03T04:47:02.206Z,21.34
2022-08-03T04:50:09.139Z,21.36
2022-08-03T04:53:13.481Z,21.33
2022-08-03T04:56:14.894Z,21.39
2022-08-03T04:59:17.728Z,21.46
2022-08-03T05:02:19.293Z,21.47
2022-08-03T05:05:21.908Z,21.56
2022-08-03T05:08:28.056Z,21.62
2022-08-03T05:11:29.955Z,21.68
2022-08-03T05:14:31.494Z,21.73
2022-08-03T05:17:34.009Z,21.78
2022-08-03T05:20:35.408Z,21.90
2022-08-03T05:23:37.805Z,21.91
2022-08-03T05:26:39.222Z,22.03
2022-08-03T05:29:40.687Z,22.08
2022-08-03T05:32:42.086Z,22.16
2022-08-03T05:36:01.319Z,22.24
2022-08-03T05:39:04.352Z,22.34
2022-08-03T05:42:05.833Z,22.42
2022-08-03T05:45:19.939Z,22.46
2022-08-03T05:48:21.349Z,22.62
2022-08-03T05:51:23.022Z,22.75
2022-08-03T05:54:24.437Z,22.88
2022-08-03T05:57:46.473Z,22.99
2022-08-03T06:00:47.889Z,23.16
2022-08-03T06:03:50.521Z,23.15
2022-08-03T06:06:51.958Z,23.29
2022-08-03T06:10:35.456Z,23.37
2022-08-03T06:13:14.914Z,23.55
2022-08-03T06:16:16.402Z,23.60
2022-08-03T06:19:17.816Z,23.73
2022-08-03T06:25:22.747Z,24.03
2022-08-03T06:28:52.566Z,24.06
2022-08-03T06:31:45.994Z,24.19
2022-08-03T06:34:47.542Z,24.33
2022-08-03T06:37:50.585Z,24.46
2022-08-03T06:40:52.005Z,24.53
2022-08-03T06:44:03.883Z,24.67
2022-08-03T06:47:05.870Z,24.79
2022-08-03T06:50:14.430Z,24.84
2022-08-03T06:53:20.499Z,24.94
2022-08-03T06:56:22.992Z,25.01
2022-08-03T07:00:06.381Z,25.18
2022-08-03T07:02:46.370Z,25.29
2022-08-03T07:05:49.762Z,25.30
2022-08-03T07:08:53.617Z,25.50
2022-08-03T07:11:57.144Z,25.59
2022-08-03T07:15:02.666Z,25.67
2022-08-03T07:18:04.718Z,25.75
2022-08-03T07:21:07.920Z,25.92
2022-08-03T07:24:09.437Z,26.13
2022-08-03T07:27:11.121Z,26.36
2022-08-03T07:30:13.582Z,26.46
2022-08-03T07:33:15.230Z,26.32
2022-08-03T07:36:16.849Z,26.23
2022-08-03T07:39:18.458Z,26.52
2022-08-03T07:42:20.422Z,26.72
2022-08-03T07:45:23.342Z,26.97
2022-08-03T07:48:24.963Z,27.23
2022-08-03T07:51:26.463Z,27.41
2022-08-03T07:54:27.866Z,27.43
2022-08-03T07:57:29.773Z,27.43
2022-08-03T08:00:31.700Z,27.45
2022-08-03T08:03:52.394Z,27.53
2022-08-03T08:06:54.589Z,27.80
2022-08-03T08:09:56.105Z,27.92
2022-08-03T08:12:57.654Z,28.07
2022-08-03T08:15:59.349Z,28.16
2022-08-03T08:19:01.996Z,28.35
2022-08-03T08:22:03.470Z,28.55
2022-08-03T08:25:06.741Z,28.53
2022-08-03T08:28:30.572Z,28.46
2022-08-03T08:31:29.662Z,28.22
2022-08-03T08:34:31.081Z,28.28
2022-08-03T08:37:34.054Z,28.28
2022-08-03T08:40:35.548Z,28.53
2022-08-03T08:43:37.321Z,28.81
2022-08-03T08:46:39.638Z,28.74
2022-08-03T08:49:53.464Z,28.54
2022-08-03T08:53:03.871Z,28.75
2022-08-03T08:56:16.308Z,29.26
2022-08-03T08:59:18.630Z,29.54
2022-08-03T09:02:20.313Z,29.24
2022-08-03T09:05:35.791Z,29.27
2022-08-03T09:08:42.891Z,29.78
2022-08-03T09:11:57.651Z,30.07
2022-08-03T09:15:21.278Z,30.35
2022-08-03T09:18:32.317Z,30.65
2022-08-03T09:21:34.872Z,30.79
2022-08-03T09:24:41.608Z,31.00
2022-08-03T09:27:45.090Z,30.99
2022-08-03T09:30:59.390Z,31.09
2022-08-03T09:34:03.279Z,31.28
2022-08-03T09:37:14.302Z,31.03
2022-08-03T09:40:34.549Z,31.08
2022-08-03T09:43:46.713Z,31.45
2022-08-03T09:46:53.298Z,31.64
2022-08-03T09:50:02.146Z,31.33
2022-08-03T09:53:03.844Z,31.24
2022-08-03T09:56:35.884Z,31.61
2022-08-03T09:59:29.381Z,31.78
2022-08-03T10:02:31.025Z,31.79
2022-08-03T10:05:33.134Z,31.99
2022-08-03T10:08:34.645Z,32.09
2022-08-03T10:11:41.274Z,32.30
2022-08-03T10:14:45.600Z,32.42
2022-08-03T10:17:47.065Z,32.38
2022-08-03T10:21:03.184Z,31.86
2022-08-03T10:24:07.550Z,31.64
2022-08-03T10:27:11.302Z,31.64
2022-08-03T10:30:13.965Z,31.79
2022-08-03T10:33:50.028Z,31.73
2022-08-03T10:36:43.190Z,31.81
2022-08-03T10:39:53.379Z,31.70
2022-08-03T10:42:59.363Z,31.95
2022-08-03T10:46:06.661Z,31.99
2022-08-03T10:49:12.028Z,31.90
2022-08-03T10:52:32.759Z,32.16
2022-08-03T10:56:11.207Z,32.21
2022-08-03T10:59:12.633Z,32.20
2022-08-03T11:03:06.597Z,32.15
2022-08-03T11:06:19.549Z,32.42
2022-08-03T11:09:21.073Z,32.63
2022-08-03T11:12:30.855Z,32.81
2022-08-03T11:15:34.744Z,33.00
2022-08-03T11:18:36.285Z,32.88
2022-08-03T11:21:49.854Z,32.94
2022-08-03T11:24:54.092Z,33.01
2022-08-03T11:28:30.586Z,33.10
2022-08-03T11:31:49.197Z,33.43
2022-08-03T11:35:07.143Z,33.79
2022-08-03T11:38:10.391Z,34.14
2022-08-03T11:41:42.783Z,34.08
2022-08-03T11:44:46.849Z,34.05
2022-08-03T11:47:51.699Z,34.10
2022-08-03T11:50:53.112Z,34.27
2022-08-03T11:54:05.488Z,34.29
2022-08-03T11:57:07.018Z,34.28
2022-08-03T12:00:26.928Z,34.45
2022-08-03T12:03:33.191Z,34.44
2022-08-03T12:06:54.633Z,34.28
2022-08-03T12:10:15.066Z,34.58
2022-08-03T12:14:44.570Z,34.83
2022-08-03T12:16:39.283Z,34.82
2022-08-03T12:19:44.045Z,34.56
2022-08-03T12:22:45.504Z,34.56
2022-08-03T12:25:47.885Z,34.62
2022-08-03T12:28:51.016Z,34.76
2022-08-03T12:31:53.110Z,34.72
2022-08-03T12:35:00.112Z,34.18
2022-08-03T12:38:03.009Z,34.10
2022-08-03T12:41:13.494Z,34.44
2022-08-03T12:44:15.566Z,34.72
2022-08-03T12:47:17.205Z,34.93
2022-08-03T12:50:36.541Z,34.79
2022-08-03T12:53:37.985Z,34.81
2022-08-03T12:57:00.530Z,34.82
2022-08-03T13:00:21.478Z,34.91
2022-08-03T13:03:42.759Z,34.90
2022-08-03T13:06:44.736Z,35.04
2022-08-03T13:09:50.711Z,35.34
2022-08-03T13:12:53.138Z,35.47
2022-08-03T13:15:54.552Z,35.68
2022-08-03T13:18:56.212Z,35.88
2022-08-03T13:22:04.339Z,35.79
2022-08-03T13:25:06.580Z,35.76
2022-08-03T13:28:12.399Z,35.79
2022-08-03T13:31:15.460Z,35.37
2022-08-03T13:34:20.899Z,35.57
2022-08-03T13:37:24.780Z,35.61
2022-08-03T13:40:30.157Z,35.94
2022-08-03T13:43:31.937Z,35.86
2022-08-03T13:46:34.384Z,35.75
2022-08-03T13:49:35.798Z,35.83
2022-08-03T13:52:37.233Z,35.69
2022-08-03T13:55:38.697Z,35.98
2022-08-03T13:58:40.301Z,36.04
2022-08-03T14:01:55.031Z,36.02
2022-08-03T14:04:57.281Z,36.36
2022-08-03T14:07:58.753Z,35.75
2022-08-03T14:11:06.935Z,35.66
2022-08-03T14:14:08.646Z,35.69
2022-08-03T14:17:10.156Z,35.93
2022-08-03T14:20:36.267Z,36.22
2022-08-03T14:23:39.771Z,36.45
2022-08-03T14:26:41.174Z,36.22
2022-08-03T14:29:42.581Z,36.34
2022-08-03T14:32:44.088Z,36.38
2022-08-03T14:35:45.567Z,36.49
2022-08-03T14:38:47.057Z,36.47
2022-08-03T14:41:48.588Z,36.37
2022-08-03T14:44:50.093Z,36.44
2022-08-03T14:50:29.667Z,36.59
2022-08-03T14:51:12.928Z,36.56
2022-08-03T14:54:14.334Z,36.52
2022-08-03T14:57:19.922Z,36.46
2022-08-03T15:00:21.534Z,36.27
2022-08-03T15:03:24.794Z,36.55
2022-08-03T15:06:26.329Z,36.66
2022-08-03T15:09:27.922Z,36.71
2022-08-03T15:12:29.414Z,36.75
2022-08-03T15:15:30.859Z,37.02
2022-08-03T15:18:32.260Z,36.87
2022-08-03T15:21:46.747Z,37.01
2022-08-03T15:24:49.285Z,36.87
2022-08-03T15:28:03.380Z,36.72
2022-08-03T15:31:06.733Z,36.91
2022-08-03T15:34:08.162Z,36.92
2022-08-03T15:37:16.260Z,36.95
2022-08-03T15:40:18.058Z,36.74
2022-08-03T15:43:20.102Z,37.07
2022-08-03T15:46:29.891Z,37.34
2022-08-03T15:49:31.533Z,37.34
2022-08-03T15:52:33.053Z,37.33
2022-08-03T15:55:34.697Z,37.56
2022-08-03T15:59:11.880Z,37.63
2022-08-03T16:01:58.257Z,37.89
2022-08-03T16:04:59.705Z,37.81
2022-08-03T16:08:03.512Z,37.76
2022-08-03T16:11:06.073Z,37.81
2022-08-03T16:14:30.693Z,37.81
2022-08-03T16:17:28.917Z,37.82
2022-08-03T16:20:33.906Z,37.83
2022-08-03T16:23:37.782Z,37.45
2022-08-03T16:26:39.392Z,37.14
2022-08-03T16:29:40.862Z,36.49
2022-08-03T16:32:45.935Z,36.49
2022-08-03T16:35:49.541Z,36.39
2022-08-03T16:38:51.209Z,36.28
2022-08-03T16:41:53.899Z,36.14
2022-08-03T16:45:02.778Z,36.26
2022-08-03T16:48:05.723Z,36.48
2022-08-03T16:51:07.451Z,36.59
2022-08-03T16:54:14.156Z,36.74
2022-08-03T16:57:16.008Z,36.69
2022-08-03T17:00:32.880Z,36.72
2022-08-03T17:03:57.062Z,36.67
2022-08-03T17:07:00.545Z,36.67
2022-08-03T17:10:02.151Z,36.25
2022-08-03T17:13:03.601Z,35.96
2022-08-03T17:16:09.548Z,35.76
2022-08-03T17:19:12.393Z,35.68
2022-08-03T17:22:18.905Z,35.47
2022-08-03T17:25:39.850Z,35.49
2022-08-03T17:28:57.919Z,35.46
2022-08-03T17:32:04.526Z,35.35
2022-08-03T17:35:11.041Z,35.30
2022-08-03T17:38:15.719Z,35.29
2022-08-03T17:41:21.782Z,35.17
2022-08-03T17:44:33.116Z,35.09
2022-08-03T17:47:43.754Z,34.99
2022-08-03T17:51:00.326Z,34.97
2022-08-03T17:54:18.498Z,35.00
2022-08-03T17:57:28.875Z,34.98
2022-08-03T18:01:56.931Z,34.88
2022-08-03T18:04:41.665Z,34.87
2022-08-03T18:07:49.474Z,34.89
2022-08-03T18:11:14.895Z,34.86
2022-08-03T18:14:25.961Z,34.79
2022-08-03T18:17:55.583Z,34.75
2022-08-03T18:20:54.532Z,34.72
2022-08-03T18:23:59.475Z,34.71
2022-08-03T18:27:02.388Z,34.63
2022-08-03T18:30:04.568Z,34.54
2022-08-03T18:34:19.532Z,34.40
2022-08-03T18:36:32.867Z,34.34
2022-08-03T18:39:39.026Z,34.27
2022-08-03T18:42:54.779Z,34.18
2022-08-03T18:46:01.941Z,34.07
2022-08-03T18:49:11.540Z,33.96
2022-08-03T18:52:17.968Z,33.89
2022-08-03T18:55:33.353Z,33.83
2022-08-03T18:58:51.516Z,33.78
2022-08-03T19:01:59.804Z,33.72
2022-08-03T19:05:10.568Z,33.66
2022-08-03T19:08:21.079Z,33.59
2022-08-03T19:12:12.617Z,33.47
2022-08-03T19:15:12.389Z,33.34
2022-08-03T19:18:17.552Z,33.24
2022-08-03T19:21:19.737Z,33.12
2022-08-03T19:24:26.181Z,33.08
2022-08-03T19:27:30.388Z,32.95
2022-08-03T19:30:53.277Z,32.85
2022-08-03T19:33:58.271Z,32.74
2022-08-03T19:37:00.425Z,32.63
2022-08-03T19:40:01.854Z,32.52
2022-08-03T19:43:16.890Z,32.36
2022-08-03T19:46:20.358Z,32.26
2022-08-03T19:50:01.297Z,32.07
2022-08-03T19:52:49.936Z,31.86
2022-08-03T19:55:54.910Z,31.74
2022-08-03T19:58:58.632Z,31.59
2022-08-03T20:02:00.453Z,31.34
2022-08-03T20:05:02.037Z,31.19
2022-08-03T20:08:06.426Z,31.10
2022-08-03T20:11:11.761Z,31.02
2022-08-03T20:14:20.575Z,30.97
2022-08-03T20:17:56.642Z,30.89
2022-08-03T20:20:51.643Z,30.72
2022-08-03T20:24:02.829Z,30.64
2022-08-03T20:27:21.798Z,30.51
2022-08-03T20:30:31.797Z,30.36
2022-08-03T20:33:46.345Z,30.22
2022-08-03T20:36:50.653Z,30.27
2022-08-03T20:39:54.184Z,30.24
2022-08-03T20:42:55.717Z,30.18
2022-08-03T20:45:58.298Z,30.04
2022-08-03T20:49:04.404Z,30.01
2022-08-03T20:52:06.259Z,29.97
2022-08-03T20:55:20.284Z,30.03
2022-08-03T20:58:23.711Z,30.08
2022-08-03T21:01:27.637Z,30.07
2022-08-03T21:04:40.105Z,30.01
2022-08-03T21:08:04.852Z,30.04
2022-08-03T21:11:11.667Z,30.01
2022-08-03T21:14:18.848Z,29.98
2022-08-03T21:17:39.250Z,29.94
2022-08-03T21:20:43.584Z,29.90
2022-08-03T21:23:49.965Z,29.92
2022-08-03T21:26:54.534Z,29.82
2022-08-03T21:29:58.315Z,29.76
2022-08-03T21:32:59.904Z,29.66
2022-08-03T21:36:02.182Z,29.56
2022-08-03T21:39:08.360Z,29.49
2022-08-03T21:42:09.988Z,29.43
2022-08-03T21:45:17.105Z,29.35
2022-08-03T21:48:19.572Z,29.26
2022-08-03T21:51:24.992Z,29.21
2022-08-03T21:54:35.180Z,29.14
2022-08-03T21:57:39.156Z,29.10
2022-08-03T22:00:43.205Z,29.04
2022-08-03T22:03:51.123Z,29.02
2022-08-03T22:06:55.071Z,29.00
2022-08-03T22:09:57.981Z,28.96
2022-08-03T22:12:59.479Z,28.93
2022-08-03T22:16:01.232Z,28.83
2022-08-03T22:19:02.845Z,28.81
2022-08-03T22:22:07.468Z,28.70
2022-08-03T22:25:14.569Z,28.61
2022-08-03T22:28:16.071Z,28.46
2022-08-03T22:31:56.911Z,28.30
2022-08-03T22:34:42.384Z,28.27
2022-08-03T22:37:48.359Z,28.21
2022-08-03T22:40:50.894Z,28.18
2022-08-03T22:43:53.075Z,27.99
2022-08-03T22:46:55.465Z,27.91
2022-08-03T22:50:33.556Z,27.81
2022-08-03T22:53:21.775Z,27.81
2022-08-03T22:56:23.357Z,27.68
2022-08-03T22:59:40.159Z,27.72
2022-08-03T23:02:45.470Z,27.81
2022-08-03T23:06:00.692Z,27.88
2022-08-03T23:09:13.380Z,27.92
2022-08-03T23:12:18.829Z,27.90
2022-08-03T23:15:21.009Z,27.92
2022-08-03T23:18:23.422Z,27.97
2022-08-03T23:21:53.186Z,28.01
2022-08-03T23:24:49.268Z,28.04
2022-08-03T23:28:04.521Z,28.02
2022-08-03T23:31:08.370Z,28.00
2022-08-03T23:34:31.736Z,28.01
2022-08-03T23:37:33.374Z,28.04
2022-08-03T23:41:01.884Z,27.95
2022-08-03T23:44:03.859Z,27.88
2022-08-03T23:47:05.301Z,27.79
2022-08-03T23:50:07.104Z,27.74
2022-08-03T23:53:28.314Z,27.70
2022-08-03T23:57:00.840Z,27.68
